Ruabon, United Kingdom
Current Conditions -  °F | °C
As of 5:50 AM on Sunday 23 Nov 2014 (Local Time) from EGOS Reporting Station
Broken Clouds Broken Clouds  
Wind Chill:   Ceiling: 12000
Heat Index:   Visibility: 6mi
Dew Point:   Wind: 1mph
Humidity: 93%   Direction: 310°NW
Pressure: 30"   Gusts: NA
Location:  52.99°N, 3.04°W
Report Text: EGOS 230550Z AUTO 31001KT 9999 SCT043/// BKN120/// 07/06 Q1016 RERA
Loading
Personal Weather Stations






























Interactive Weather Map New forecast layout! Learn more

10-Day Weather Forecast

Advertisements
Track Severe Weather on mobile